sensor_id;sensor_type;location;lat;lon;timestamp;temperature;humidity
4501;DHT22;2263;54.654;9.410;2023-07-31T00:01:09;18.40;81.50
4501;DHT22;2263;54.654;9.410;2023-07-31T00:03:37;18.40;81.70
4501;DHT22;2263;54.654;9.410;2023-07-31T00:06:04;18.40;81.60
4501;DHT22;2263;54.654;9.410;2023-07-31T00:08:32;18.40;81.60
4501;DHT22;2263;54.654;9.410;2023-07-31T00:10:59;18.30;81.60
4501;DHT22;2263;54.654;9.410;2023-07-31T00:13:27;18.30;81.60
4501;DHT22;2263;54.654;9.410;2023-07-31T00:15:55;18.30;81.60
4501;DHT22;2263;54.654;9.410;2023-07-31T00:18:22;18.30;81.70
4501;DHT22;2263;54.654;9.410;2023-07-31T00:20:50;18.30;81.80
4501;DHT22;2263;54.654;9.410;2023-07-31T00:23:18;18.30;81.90
4501;DHT22;2263;54.654;9.410;2023-07-31T00:25:45;18.30;82.00
4501;DHT22;2263;54.654;9.410;2023-07-31T00:28:13;18.20;81.80
4501;DHT22;2263;54.654;9.410;2023-07-31T00:30:40;18.20;82.00
4501;DHT22;2263;54.654;9.410;2023-07-31T00:33:08;18.20;82.10
4501;DHT22;2263;54.654;9.410;2023-07-31T00:35:36;18.20;82.00
4501;DHT22;2263;54.654;9.410;2023-07-31T00:38:03;18.20;82.10
4501;DHT22;2263;54.654;9.410;2023-07-31T00:40:35;18.20;82.20
4501;DHT22;2263;54.654;9.410;2023-07-31T00:43:04;18.20;82.30
4501;DHT22;2263;54.654;9.410;2023-07-31T00:45:32;18.20;82.30
4501;DHT22;2263;54.654;9.410;2023-07-31T00:48:01;18.10;82.30
4501;DHT22;2263;54.654;9.410;2023-07-31T00:50:29;18.10;82.30
4501;DHT22;2263;54.654;9.410;2023-07-31T00:52:57;18.10;82.40
4501;DHT22;2263;54.654;9.410;2023-07-31T00:55:25;18.10;82.30
4501;DHT22;2263;54.654;9.410;2023-07-31T00:57:52;18.10;82.40
4501;DHT22;2263;54.654;9.410;2023-07-31T01:00:25;18.10;82.30
4501;DHT22;2263;54.654;9.410;2023-07-31T01:02:53;18.10;82.30
4501;DHT22;2263;54.654;9.410;2023-07-31T01:05:29;18.00;82.30
4501;DHT22;2263;54.654;9.410;2023-07-31T01:08:08;18.00;82.30
4501;DHT22;2263;54.654;9.410;2023-07-31T01:10:50;18.00;82.40
4501;DHT22;2263;54.654;9.410;2023-07-31T01:13:19;18.00;82.50
4501;DHT22;2263;54.654;9.410;2023-07-31T01:15:48;18.00;82.40
4501;DHT22;2263;54.654;9.410;2023-07-31T01:18:15;18.00;82.50
4501;DHT22;2263;54.654;9.410;2023-07-31T01:20:47;18.00;82.60
4501;DHT22;2263;54.654;9.410;2023-07-31T01:26:23;17.90;82.60
4501;DHT22;2263;54.654;9.410;2023-07-31T01:29:03;17.90;82.60
4501;DHT22;2263;54.654;9.410;2023-07-31T01:31:35;17.90;82.60
4501;DHT22;2263;54.654;9.410;2023-07-31T01:34:04;17.90;82.60
4501;DHT22;2263;54.654;9.410;2023-07-31T01:36:33;17.90;82.40
4501;DHT22;2263;54.654;9.410;2023-07-31T01:39:02;17.90;82.50
4501;DHT22;2263;54.654;9.410;2023-07-31T01:41:32;17.90;82.50
4501;DHT22;2263;54.654;9.410;2023-07-31T01:43:59;17.90;82.60
4501;DHT22;2263;54.654;9.410;2023-07-31T01:46:27;17.80;82.60
4501;DHT22;2263;54.654;9.410;2023-07-31T01:48:55;17.80;82.60
4501;DHT22;2263;54.654;9.410;2023-07-31T01:51:22;17.80;82.70
4501;DHT22;2263;54.654;9.410;2023-07-31T01:53:50;17.80;82.80
4501;DHT22;2263;54.654;9.410;2023-07-31T01:56:17;17.80;82.80
4501;DHT22;2263;54.654;9.410;2023-07-31T01:58:48;17.80;82.70
4501;DHT22;2263;54.654;9.410;2023-07-31T02:01:15;17.80;82.70
4501;DHT22;2263;54.654;9.410;2023-07-31T02:03:43;17.80;82.80
4501;DHT22;2263;54.654;9.410;2023-07-31T02:06:11;17.80;82.90
4501;DHT22;2263;54.654;9.410;2023-07-31T02:08:38;17.80;82.90
4501;DHT22;2263;54.654;9.410;2023-07-31T02:11:06;17.80;82.90
4501;DHT22;2263;54.654;9.410;2023-07-31T02:13:34;17.70;82.90
4501;DHT22;2263;54.654;9.410;2023-07-31T02:16:01;17.70;82.90
4501;DHT22;2263;54.654;9.410;2023-07-31T02:18:29;17.70;83.00
4501;DHT22;2263;54.654;9.410;2023-07-31T02:20:57;17.70;83.00
4501;DHT22;2263;54.654;9.410;2023-07-31T02:23:25;17.70;82.90
4501;DHT22;2263;54.654;9.410;2023-07-31T02:25:52;17.70;83.00
4501;DHT22;2263;54.654;9.410;2023-07-31T02:28:20;17.70;83.10
4501;DHT22;2263;54.654;9.410;2023-07-31T02:30:48;17.70;83.00
4501;DHT22;2263;54.654;9.410;2023-07-31T02:33:17;17.70;82.90
4501;DHT22;2263;54.654;9.410;2023-07-31T02:35:45;17.60;83.00
4501;DHT22;2263;54.654;9.410;2023-07-31T02:38:12;17.60;83.00
4501;DHT22;2263;54.654;9.410;2023-07-31T02:40:40;17.60;83.00
4501;DHT22;2263;54.654;9.410;2023-07-31T02:43:10;17.60;83.10
4501;DHT22;2263;54.654;9.410;2023-07-31T02:45:38;17.60;83.10
4501;DHT22;2263;54.654;9.410;2023-07-31T02:48:06;17.60;83.10
4501;DHT22;2263;54.654;9.410;2023-07-31T02:50:33;17.50;83.10
4501;DHT22;2263;54.654;9.410;2023-07-31T02:53:01;17.50;83.20
4501;DHT22;2263;54.654;9.410;2023-07-31T02:55:29;17.50;83.10
4501;DHT22;2263;54.654;9.410;2023-07-31T02:57:56;17.50;83.20
4501;DHT22;2263;54.654;9.410;2023-07-31T03:00:25;17.50;83.20
4501;DHT22;2263;54.654;9.410;2023-07-31T03:02:53;17.50;83.20
4501;DHT22;2263;54.654;9.410;2023-07-31T03:05:21;17.50;83.20
4501;DHT22;2263;54.654;9.410;2023-07-31T03:07:48;17.50;83.50
4501;DHT22;2263;54.654;9.410;2023-07-31T03:10:16;17.40;83.30
4501;DHT22;2263;54.654;9.410;2023-07-31T03:12:47;17.40;83.30
4501;DHT22;2263;54.654;9.410;2023-07-31T03:15:15;17.40;83.30
4501;DHT22;2263;54.654;9.410;2023-07-31T03:17:43;17.40;83.40
4501;DHT22;2263;54.654;9.410;2023-07-31T03:20:11;17.40;83.50
4501;DHT22;2263;54.654;9.410;2023-07-31T03:22:39;17.40;83.50
4501;DHT22;2263;54.654;9.410;2023-07-31T03:25:06;17.40;83.50
4501;DHT22;2263;54.654;9.410;2023-07-31T03:27:34;17.40;83.50
4501;DHT22;2263;54.654;9.410;2023-07-31T03:30:03;17.30;83.50
4501;DHT22;2263;54.654;9.410;2023-07-31T03:32:31;17.30;83.50
4501;DHT22;2263;54.654;9.410;2023-07-31T03:34:59;17.30;83.50
4501;DHT22;2263;54.654;9.410;2023-07-31T03:37:26;17.30;84.20
4501;DHT22;2263;54.654;9.410;2023-07-31T03:39:57;17.30;83.50
4501;DHT22;2263;54.654;9.410;2023-07-31T03:42:24;17.30;83.60
4501;DHT22;2263;54.654;9.410;2023-07-31T03:44:52;17.30;83.70
4501;DHT22;2263;54.654;9.410;2023-07-31T03:47:19;17.30;83.60
4501;DHT22;2263;54.654;9.410;2023-07-31T03:49:47;17.30;83.70
4501;DHT22;2263;54.654;9.410;2023-07-31T03:52:14;17.20;83.80
4501;DHT22;2263;54.654;9.410;2023-07-31T03:54:42;17.30;83.80
4501;DHT22;2263;54.654;9.410;2023-07-31T03:57:11;17.20;83.70
4501;DHT22;2263;54.654;9.410;2023-07-31T03:59:39;17.20;83.70
4501;DHT22;2263;54.654;9.410;2023-07-31T04:02:06;17.20;83.80
4501;DHT22;2263;54.654;9.410;2023-07-31T04:04:34;17.20;83.90
4501;DHT22;2263;54.654;9.410;2023-07-31T04:07:02;17.20;84.00
4501;DHT22;2263;54.654;9.410;2023-07-31T04:09:30;17.20;84.10
4501;DHT22;2263;54.654;9.410;2023-07-31T04:11:57;17.20;84.10
4501;DHT22;2263;54.654;9.410;2023-07-31T04:14:25;17.20;84.20
4501;DHT22;2263;54.654;9.410;2023-07-31T04:16:53;17.20;84.30
4501;DHT22;2263;54.654;9.410;2023-07-31T04:19:20;17.20;84.20
4501;DHT22;2263;54.654;9.410;2023-07-31T04:21:48;17.20;84.20
4501;DHT22;2263;54.654;9.410;2023-07-31T04:24:16;17.20;84.10
4501;DHT22;2263;54.654;9.410;2023-07-31T04:26:52;17.20;84.20
4501;DHT22;2263;54.654;9.410;2023-07-31T04:29:20;17.20;84.20
4501;DHT22;2263;54.654;9.410;2023-07-31T04:31:48;17.10;84.20
4501;DHT22;2263;54.654;9.410;2023-07-31T04:34:15;17.20;84.30
4501;DHT22;2263;54.654;9.410;2023-07-31T04:36:43;17.20;84.30
4501;DHT22;2263;54.654;9.410;2023-07-31T04:39:11;17.20;84.40
4501;DHT22;2263;54.654;9.410;2023-07-31T04:41:38;17.10;84.30
4501;DHT22;2263;54.654;9.410;2023-07-31T04:44:06;17.10;84.50
4501;DHT22;2263;54.654;9.410;2023-07-31T04:46:33;17.10;84.30
4501;DHT22;2263;54.654;9.410;2023-07-31T04:49:01;17.20;84.40
4501;DHT22;2263;54.654;9.410;2023-07-31T04:51:29;17.10;84.40
4501;DHT22;2263;54.654;9.410;2023-07-31T04:53:56;17.10;84.60
4501;DHT22;2263;54.654;9.410;2023-07-31T04:56:24;17.10;84.60
4501;DHT22;2263;54.654;9.410;2023-07-31T04:58:51;17.20;84.50
4501;DHT22;2263;54.654;9.410;2023-07-31T05:01:19;17.10;84.70
4501;DHT22;2263;54.654;9.410;2023-07-31T05:03:47;17.10;84.50
4501;DHT22;2263;54.654;9.410;2023-07-31T05:06:15;17.10;84.50
4501;DHT22;2263;54.654;9.410;2023-07-31T05:08:42;17.20;84.60
4501;DHT22;2263;54.654;9.410;2023-07-31T05:11:10;17.20;84.50
4501;DHT22;2263;54.654;9.410;2023-07-31T05:13:38;17.10;84.70
4501;DHT22;2263;54.654;9.410;2023-07-31T05:16:05;17.20;84.80
4501;DHT22;2263;54.654;9.410;2023-07-31T05:18:33;17.20;84.80
4501;DHT22;2263;54.654;9.410;2023-07-31T05:21:01;17.20;84.70
4501;DHT22;2263;54.654;9.410;2023-07-31T05:23:28;17.20;84.80
4501;DHT22;2263;54.654;9.410;2023-07-31T05:26:03;17.20;84.70
4501;DHT22;2263;54.654;9.410;2023-07-31T05:28:31;17.20;84.90
4501;DHT22;2263;54.654;9.410;2023-07-31T05:31:03;17.20;85.00
4501;DHT22;2263;54.654;9.410;2023-07-31T05:33:31;17.20;85.20
4501;DHT22;2263;54.654;9.410;2023-07-31T05:36:00;17.20;85.40
4501;DHT22;2263;54.654;9.410;2023-07-31T05:38:28;17.10;85.50
4501;DHT22;2263;54.654;9.410;2023-07-31T05:40:55;17.20;85.80
4501;DHT22;2263;54.654;9.410;2023-07-31T05:43:23;17.10;85.90
4501;DHT22;2263;54.654;9.410;2023-07-31T05:45:51;17.20;86.30
4501;DHT22;2263;54.654;9.410;2023-07-31T05:48:19;17.20;86.00
4501;DHT22;2263;54.654;9.410;2023-07-31T05:50:46;17.10;86.40
4501;DHT22;2263;54.654;9.410;2023-07-31T05:53:14;17.20;86.50
4501;DHT22;2263;54.654;9.410;2023-07-31T05:55:42;17.20;86.30
4501;DHT22;2263;54.654;9.410;2023-07-31T05:58:09;17.20;86.60
4501;DHT22;2263;54.654;9.410;2023-07-31T06:00:37;17.20;86.50
4501;DHT22;2263;54.654;9.410;2023-07-31T06:03:05;17.20;86.70
4501;DHT22;2263;54.654;9.410;2023-07-31T06:05:32;17.20;87.00
4501;DHT22;2263;54.654;9.410;2023-07-31T06:08:00;17.20;86.90
4501;DHT22;2263;54.654;9.410;2023-07-31T06:10:28;17.20;87.00
4501;DHT22;2263;54.654;9.410;2023-07-31T06:12:55;17.20;87.60
4501;DHT22;2263;54.654;9.410;2023-07-31T06:15:24;17.20;87.10
4501;DHT22;2263;54.654;9.410;2023-07-31T06:17:52;17.20;87.30
4501;DHT22;2263;54.654;9.410;2023-07-31T06:20:20;17.20;87.80
4501;DHT22;2263;54.654;9.410;2023-07-31T06:22:47;17.20;87.20
4501;DHT22;2263;54.654;9.410;2023-07-31T06:25:15;17.20;87.70
4501;DHT22;2263;54.654;9.410;2023-07-31T06:27:42;17.20;87.50
4501;DHT22;2263;54.654;9.410;2023-07-31T06:30:11;17.20;87.40
4501;DHT22;2263;54.654;9.410;2023-07-31T06:32:38;17.20;87.80
4501;DHT22;2263;54.654;9.410;2023-07-31T06:35:08;17.20;88.10
4501;DHT22;2263;54.654;9.410;2023-07-31T06:37:36;17.20;88.20
4501;DHT22;2263;54.654;9.410;2023-07-31T06:40:04;17.30;89.10
4501;DHT22;2263;54.654;9.410;2023-07-31T06:42:32;17.30;89.00
4501;DHT22;2263;54.654;9.410;2023-07-31T06:45:00;17.30;89.20
4501;DHT22;2263;54.654;9.410;2023-07-31T06:47:28;17.30;88.90
4501;DHT22;2263;54.654;9.410;2023-07-31T06:49:56;17.30;89.20
4501;DHT22;2263;54.654;9.410;2023-07-31T06:52:24;17.40;89.30
4501;DHT22;2263;54.654;9.410;2023-07-31T06:55:18;17.40;89.50
4501;DHT22;2263;54.654;9.410;2023-07-31T06:57:50;17.40;89.30
4501;DHT22;2263;54.654;9.410;2023-07-31T07:00:19;17.40;89.30
4501;DHT22;2263;54.654;9.410;2023-07-31T07:02:48;17.40;89.30
4501;DHT22;2263;54.654;9.410;2023-07-31T07:05:19;17.40;90.00
4501;DHT22;2263;54.654;9.410;2023-07-31T07:07:49;17.40;89.70
4501;DHT22;2263;54.654;9.410;2023-07-31T07:10:18;17.40;89.70
4501;DHT22;2263;54.654;9.410;2023-07-31T07:12:46;17.50;89.70
4501;DHT22;2263;54.654;9.410;2023-07-31T07:15:16;17.40;89.70
4501;DHT22;2263;54.654;9.410;2023-07-31T07:17:44;17.50;90.00
4501;DHT22;2263;54.654;9.410;2023-07-31T07:20:12;17.50;90.00
4501;DHT22;2263;54.654;9.410;2023-07-31T07:22:40;17.50;90.00
4501;DHT22;2263;54.654;9.410;2023-07-31T07:25:10;17.50;89.70
4501;DHT22;2263;54.654;9.410;2023-07-31T07:27:37;17.50;89.90
4501;DHT22;2263;54.654;9.410;2023-07-31T07:30:05;17.60;90.20
4501;DHT22;2263;54.654;9.410;2023-07-31T07:32:33;17.60;89.90
4501;DHT22;2263;54.654;9.410;2023-07-31T07:35:01;17.60;90.00
4501;DHT22;2263;54.654;9.410;2023-07-31T07:37:29;17.60;90.00
4501;DHT22;2263;54.654;9.410;2023-07-31T07:39:58;17.60;90.00
4501;DHT22;2263;54.654;9.410;2023-07-31T07:42:25;17.60;89.80
4501;DHT22;2263;54.654;9.410;2023-07-31T07:44:53;17.60;89.80
4501;DHT22;2263;54.654;9.410;2023-07-31T07:47:20;17.70;89.90
4501;DHT22;2263;54.654;9.410;2023-07-31T07:49:48;17.60;89.90
4501;DHT22;2263;54.654;9.410;2023-07-31T07:52:19;17.70;90.00
4501;DHT22;2263;54.654;9.410;2023-07-31T07:54:47;17.70;90.00
4501;DHT22;2263;54.654;9.410;2023-07-31T07:57:14;17.70;90.00
4501;DHT22;2263;54.654;9.410;2023-07-31T07:59:42;17.70;90.00
4501;DHT22;2263;54.654;9.410;2023-07-31T08:02:10;17.70;90.00
4501;DHT22;2263;54.654;9.410;2023-07-31T08:04:37;17.80;90.10
4501;DHT22;2263;54.654;9.410;2023-07-31T08:07:05;17.70;90.00
4501;DHT22;2263;54.654;9.410;2023-07-31T08:09:32;17.80;90.30
4501;DHT22;2263;54.654;9.410;2023-07-31T08:12:00;17.80;90.10
4501;DHT22;2263;54.654;9.410;2023-07-31T08:14:30;17.70;90.10
4501;DHT22;2263;54.654;9.410;2023-07-31T08:17:00;17.70;90.00
4501;DHT22;2263;54.654;9.410;2023-07-31T08:19:27;17.80;90.20
4501;DHT22;2263;54.654;9.410;2023-07-31T08:21:55;17.70;90.00
4501;DHT22;2263;54.654;9.410;2023-07-31T08:24:24;17.70;90.10
4501;DHT22;2263;54.654;9.410;2023-07-31T08:26:52;17.70;90.10
4501;DHT22;2263;54.654;9.410;2023-07-31T08:29:20;17.80;90.20
4501;DHT22;2263;54.654;9.410;2023-07-31T08:31:47;17.70;90.10
4501;DHT22;2263;54.654;9.410;2023-07-31T08:34:15;17.70;90.10
4501;DHT22;2263;54.654;9.410;2023-07-31T08:36:43;17.80;90.20
4501;DHT22;2263;54.654;9.410;2023-07-31T08:39:10;17.80;90.20
4501;DHT22;2263;54.654;9.410;2023-07-31T08:41:41;17.70;90.10
4501;DHT22;2263;54.654;9.410;2023-07-31T08:44:10;17.80;90.10
4501;DHT22;2263;54.654;9.410;2023-07-31T08:46:38;17.80;90.20
4501;DHT22;2263;54.654;9.410;2023-07-31T08:49:07;17.80;90.20
4501;DHT22;2263;54.654;9.410;2023-07-31T08:51:36;17.80;90.30
4501;DHT22;2263;54.654;9.410;2023-07-31T08:54:03;17.80;90.40
4501;DHT22;2263;54.654;9.410;2023-07-31T08:56:34;17.80;90.40
4501;DHT22;2263;54.654;9.410;2023-07-31T08:59:04;17.80;90.30
4501;DHT22;2263;54.654;9.410;2023-07-31T09:01:36;17.80;90.20
4501;DHT22;2263;54.654;9.410;2023-07-31T09:04:09;17.80;90.20
4501;DHT22;2263;54.654;9.410;2023-07-31T09:06:38;17.70;90.20
4501;DHT22;2263;54.654;9.410;2023-07-31T09:09:07;17.80;90.30
4501;DHT22;2263;54.654;9.410;2023-07-31T09:11:34;17.80;90.20
4501;DHT22;2263;54.654;9.410;2023-07-31T09:14:03;17.80;90.40
4501;DHT22;2263;54.654;9.410;2023-07-31T09:16:36;17.80;90.20
4501;DHT22;2263;54.654;9.410;2023-07-31T09:19:34;17.70;90.10
4501;DHT22;2263;54.654;9.410;2023-07-31T09:22:07;17.80;90.20
4501;DHT22;2263;54.654;9.410;2023-07-31T09:24:35;17.70;90.20
4501;DHT22;2263;54.654;9.410;2023-07-31T09:27:03;17.70;90.20
4501;DHT22;2263;54.654;9.410;2023-07-31T09:29:31;17.70;90.10
4501;DHT22;2263;54.654;9.410;2023-07-31T09:31:59;17.80;90.30
4501;DHT22;2263;54.654;9.410;2023-07-31T09:34:37;17.80;90.50
4501;DHT22;2263;54.654;9.410;2023-07-31T09:37:08;17.80;90.20
4501;DHT22;2263;54.654;9.410;2023-07-31T09:39:46;17.80;90.20
4501;DHT22;2263;54.654;9.410;2023-07-31T09:42:14;17.80;90.20
4501;DHT22;2263;54.654;9.410;2023-07-31T09:44:51;17.80;90.20
4501;DHT22;2263;54.654;9.410;2023-07-31T09:47:22;17.80;90.20
4501;DHT22;2263;54.654;9.410;2023-07-31T09:49:53;17.90;90.30
4501;DHT22;2263;54.654;9.410;2023-07-31T09:52:21;17.90;90.20
4501;DHT22;2263;54.654;9.410;2023-07-31T09:54:49;17.80;90.10
4501;DHT22;2263;54.654;9.410;2023-07-31T09:57:17;17.80;90.10
4501;DHT22;2263;54.654;9.410;2023-07-31T09:59:47;17.80;90.10
4501;DHT22;2263;54.654;9.410;2023-07-31T10:02:21;17.80;90.10
4501;DHT22;2263;54.654;9.410;2023-07-31T10:04:49;17.80;90.00
4501;DHT22;2263;54.654;9.410;2023-07-31T10:07:18;17.80;90.00
4501;DHT22;2263;54.654;9.410;2023-07-31T10:09:46;17.80;90.00
4501;DHT22;2263;54.654;9.410;2023-07-31T10:12:16;17.80;89.90
4501;DHT22;2263;54.654;9.410;2023-07-31T10:14:46;17.90;90.00
4501;DHT22;2263;54.654;9.410;2023-07-31T10:17:14;17.80;89.90
4501;DHT22;2263;54.654;9.410;2023-07-31T10:19:43;17.80;89.80
4501;DHT22;2263;54.654;9.410;2023-07-31T10:22:11;17.80;89.80
4501;DHT22;2263;54.654;9.410;2023-07-31T10:24:40;17.80;89.80
4501;DHT22;2263;54.654;9.410;2023-07-31T10:27:10;17.80;89.60
4501;DHT22;2263;54.654;9.410;2023-07-31T10:29:42;17.80;89.50
4501;DHT22;2263;54.654;9.410;2023-07-31T10:32:11;17.80;89.60
4501;DHT22;2263;54.654;9.410;2023-07-31T10:34:40;17.80;89.50
4501;DHT22;2263;54.654;9.410;2023-07-31T10:42:38;17.80;89.20
4501;DHT22;2263;54.654;9.410;2023-07-31T10:45:08;17.80;89.20
4501;DHT22;2263;54.654;9.410;2023-07-31T10:47:43;17.80;89.20
4501;DHT22;2263;54.654;9.410;2023-07-31T10:52:52;17.80;89.10
4501;DHT22;2263;54.654;9.410;2023-07-31T10:55:31;17.80;89.00
4501;DHT22;2263;54.654;9.410;2023-07-31T10:58:10;17.80;89.10
4501;DHT22;2263;54.654;9.410;2023-07-31T11:00:40;17.80;89.10
4501;DHT22;2263;54.654;9.410;2023-07-31T11:03:15;17.90;89.20
4501;DHT22;2263;54.654;9.410;2023-07-31T11:06:01;17.90;89.20
4501;DHT22;2263;54.654;9.410;2023-07-31T11:08:32;17.90;89.20
4501;DHT22;2263;54.654;9.410;2023-07-31T11:11:07;17.90;89.20
4501;DHT22;2263;54.654;9.410;2023-07-31T11:13:45;17.90;89.10
4501;DHT22;2263;54.654;9.410;2023-07-31T11:16:18;17.90;89.20
4501;DHT22;2263;54.654;9.410;2023-07-31T11:18:47;17.90;89.10
4501;DHT22;2263;54.654;9.410;2023-07-31T11:21:18;17.90;89.10
4501;DHT22;2263;54.654;9.410;2023-07-31T11:23:47;17.90;89.10
4501;DHT22;2263;54.654;9.410;2023-07-31T11:26:16;17.90;89.70
4501;DHT22;2263;54.654;9.410;2023-07-31T11:28:47;17.90;89.10
4501;DHT22;2263;54.654;9.410;2023-07-31T11:31:15;17.90;89.00
4501;DHT22;2263;54.654;9.410;2023-07-31T11:33:43;18.00;89.20
4501;DHT22;2263;54.654;9.410;2023-07-31T11:36:15;18.00;89.30
4501;DHT22;2263;54.654;9.410;2023-07-31T11:38:44;18.00;89.40
4501;DHT22;2263;54.654;9.410;2023-07-31T11:41:14;18.00;89.40
4501;DHT22;2263;54.654;9.410;2023-07-31T11:43:43;18.00;89.50
4501;DHT22;2263;54.654;9.410;2023-07-31T11:46:11;18.00;89.40
4501;DHT22;2263;54.654;9.410;2023-07-31T11:48:40;18.00;89.80
4501;DHT22;2263;54.654;9.410;2023-07-31T11:51:10;18.00;89.60
4501;DHT22;2263;54.654;9.410;2023-07-31T11:53:53;18.00;89.80
4501;DHT22;2263;54.654;9.410;2023-07-31T11:56:23;18.00;89.60
4501;DHT22;2263;54.654;9.410;2023-07-31T11:58:59;18.00;89.60
4501;DHT22;2263;54.654;9.410;2023-07-31T12:01:27;18.00;89.50
4501;DHT22;2263;54.654;9.410;2023-07-31T12:03:56;18.00;89.50
4501;DHT22;2263;54.654;9.410;2023-07-31T12:06:34;18.00;89.70
4501;DHT22;2263;54.654;9.410;2023-07-31T12:09:06;18.00;89.60
4501;DHT22;2263;54.654;9.410;2023-07-31T12:11:46;18.00;89.70
4501;DHT22;2263;54.654;9.410;2023-07-31T12:14:25;18.00;90.00
4501;DHT22;2263;54.654;9.410;2023-07-31T12:16:55;18.00;90.00
4501;DHT22;2263;54.654;9.410;2023-07-31T12:19:24;18.00;90.20
4501;DHT22;2263;54.654;9.410;2023-07-31T12:22:02;18.00;90.00
4501;DHT22;2263;54.654;9.410;2023-07-31T12:24:29;18.10;90.10
4501;DHT22;2263;54.654;9.410;2023-07-31T12:26:57;18.10;90.00
4501;DHT22;2263;54.654;9.410;2023-07-31T12:29:34;18.10;90.10
4501;DHT22;2263;54.654;9.410;2023-07-31T12:32:23;18.00;90.10
4501;DHT22;2263;54.654;9.410;2023-07-31T12:34:59;18.10;90.10
4501;DHT22;2263;54.654;9.410;2023-07-31T12:37:28;18.00;90.00
4501;DHT22;2263;54.654;9.410;2023-07-31T12:39:56;18.10;90.00
4501;DHT22;2263;54.654;9.410;2023-07-31T12:42:28;18.10;90.00
4501;DHT22;2263;54.654;9.410;2023-07-31T12:44:57;18.00;89.90
4501;DHT22;2263;54.654;9.410;2023-07-31T12:47:26;18.00;90.00
4501;DHT22;2263;54.654;9.410;2023-07-31T12:49:53;18.10;90.10
4501;DHT22;2263;54.654;9.410;2023-07-31T12:52:21;18.10;90.00
4501;DHT22;2263;54.654;9.410;2023-07-31T12:54:49;18.10;90.10
4501;DHT22;2263;54.654;9.410;2023-07-31T12:57:16;18.10;90.20
4501;DHT22;2263;54.654;9.410;2023-07-31T12:59:44;18.10;90.00
4501;DHT22;2263;54.654;9.410;2023-07-31T13:02:12;18.10;90.10
4501;DHT22;2263;54.654;9.410;2023-07-31T13:04:39;18.10;90.20
4501;DHT22;2263;54.654;9.410;2023-07-31T13:07:07;18.10;90.10
4501;DHT22;2263;54.654;9.410;2023-07-31T13:09:35;18.00;90.90
4501;DHT22;2263;54.654;9.410;2023-07-31T13:12:02;18.00;90.50
4501;DHT22;2263;54.654;9.410;2023-07-31T13:14:30;18.10;90.40
4501;DHT22;2263;54.654;9.410;2023-07-31T13:16:58;18.00;90.30
4501;DHT22;2263;54.654;9.410;2023-07-31T13:19:26;18.10;90.30
4501;DHT22;2263;54.654;9.410;2023-07-31T13:21:53;18.10;90.40
4501;DHT22;2263;54.654;9.410;2023-07-31T13:24:21;18.10;90.30
4501;DHT22;2263;54.654;9.410;2023-07-31T13:26:48;18.10;90.30
4501;DHT22;2263;54.654;9.410;2023-07-31T13:29:16;18.10;90.30
4501;DHT22;2263;54.654;9.410;2023-07-31T13:31:44;18.20;90.30
4501;DHT22;2263;54.654;9.410;2023-07-31T13:34:11;18.20;90.40
4501;DHT22;2263;54.654;9.410;2023-07-31T13:36:39;18.20;90.40
4501;DHT22;2263;54.654;9.410;2023-07-31T13:39:07;18.20;90.40
4501;DHT22;2263;54.654;9.410;2023-07-31T13:41:35;18.20;90.40
4501;DHT22;2263;54.654;9.410;2023-07-31T13:44:02;18.20;90.40
4501;DHT22;2263;54.654;9.410;2023-07-31T13:46:30;18.20;90.40
4501;DHT22;2263;54.654;9.410;2023-07-31T13:48:59;18.20;90.40
4501;DHT22;2263;54.654;9.410;2023-07-31T13:51:28;18.20;90.40
4501;DHT22;2263;54.654;9.410;2023-07-31T13:53:56;18.20;90.40
4501;DHT22;2263;54.654;9.410;2023-07-31T13:56:24;18.20;90.50
4501;DHT22;2263;54.654;9.410;2023-07-31T13:58:54;18.20;90.40
4501;DHT22;2263;54.654;9.410;2023-07-31T14:01:21;18.20;90.40
4501;DHT22;2263;54.654;9.410;2023-07-31T14:03:49;18.30;90.50
4501;DHT22;2263;54.654;9.410;2023-07-31T14:06:17;18.30;90.60
4501;DHT22;2263;54.654;9.410;2023-07-31T14:08:44;18.30;90.40
4501;DHT22;2263;54.654;9.410;2023-07-31T14:11:12;18.30;90.40
4501;DHT22;2263;54.654;9.410;2023-07-31T14:13:39;18.30;90.40
4501;DHT22;2263;54.654;9.410;2023-07-31T14:16:07;18.30;90.50
4501;DHT22;2263;54.654;9.410;2023-07-31T14:18:35;18.30;90.50
4501;DHT22;2263;54.654;9.410;2023-07-31T14:21:03;18.30;90.40
4501;DHT22;2263;54.654;9.410;2023-07-31T14:23:31;18.30;90.40
4501;DHT22;2263;54.654;9.410;2023-07-31T14:25:58;18.30;90.50
4501;DHT22;2263;54.654;9.410;2023-07-31T14:28:26;18.30;90.40
4501;DHT22;2263;54.654;9.410;2023-07-31T14:30:54;18.40;90.50
4501;DHT22;2263;54.654;9.410;2023-07-31T14:33:21;18.40;90.40
4501;DHT22;2263;54.654;9.410;2023-07-31T14:35:49;18.30;90.50
4501;DHT22;2263;54.654;9.410;2023-07-31T14:38:17;18.40;90.50
4501;DHT22;2263;54.654;9.410;2023-07-31T14:40:44;18.30;90.40
4501;DHT22;2263;54.654;9.410;2023-07-31T14:43:12;18.30;90.40
4501;DHT22;2263;54.654;9.410;2023-07-31T14:45:40;18.30;90.40
4501;DHT22;2263;54.654;9.410;2023-07-31T14:48:07;18.30;90.30
4501;DHT22;2263;54.654;9.410;2023-07-31T14:50:35;18.30;90.40
4501;DHT22;2263;54.654;9.410;2023-07-31T14:53:03;18.30;90.30
4501;DHT22;2263;54.654;9.410;2023-07-31T14:55:30;18.30;90.30
4501;DHT22;2263;54.654;9.410;2023-07-31T14:57:58;18.30;90.30
4501;DHT22;2263;54.654;9.410;2023-07-31T15:00:25;18.30;90.30
4501;DHT22;2263;54.654;9.410;2023-07-31T15:02:53;18.30;90.30
4501;DHT22;2263;54.654;9.410;2023-07-31T15:05:21;18.30;90.30
4501;DHT22;2263;54.654;9.410;2023-07-31T15:07:49;18.30;90.30
4501;DHT22;2263;54.654;9.410;2023-07-31T15:10:17;18.30;90.20
4501;DHT22;2263;54.654;9.410;2023-07-31T15:12:48;18.30;90.20
4501;DHT22;2263;54.654;9.410;2023-07-31T15:15:16;18.30;90.20
4501;DHT22;2263;54.654;9.410;2023-07-31T15:17:47;18.30;90.30
4501;DHT22;2263;54.654;9.410;2023-07-31T15:20:15;18.30;90.30
4501;DHT22;2263;54.654;9.410;2023-07-31T15:22:43;18.30;90.20
4501;DHT22;2263;54.654;9.410;2023-07-31T15:25:11;18.40;90.30
4501;DHT22;2263;54.654;9.410;2023-07-31T15:27:38;18.30;90.30
4501;DHT22;2263;54.654;9.410;2023-07-31T15:30:07;18.40;90.30
4501;DHT22;2263;54.654;9.410;2023-07-31T15:32:37;18.40;90.30
4501;DHT22;2263;54.654;9.410;2023-07-31T15:35:09;18.40;90.50
4501;DHT22;2263;54.654;9.410;2023-07-31T15:37:36;18.40;90.40
4501;DHT22;2263;54.654;9.410;2023-07-31T15:40:04;18.40;90.30
4501;DHT22;2263;54.654;9.410;2023-07-31T15:42:33;18.40;90.40
4501;DHT22;2263;54.654;9.410;2023-07-31T15:45:07;18.40;90.30
4501;DHT22;2263;54.654;9.410;2023-07-31T15:47:34;18.40;90.30
4501;DHT22;2263;54.654;9.410;2023-07-31T15:50:02;18.40;90.40
4501;DHT22;2263;54.654;9.410;2023-07-31T15:52:30;18.40;90.50
4501;DHT22;2263;54.654;9.410;2023-07-31T15:54:58;18.40;90.40
4501;DHT22;2263;54.654;9.410;2023-07-31T15:57:25;18.40;90.50
4501;DHT22;2263;54.654;9.410;2023-07-31T15:59:57;18.40;90.40
4501;DHT22;2263;54.654;9.410;2023-07-31T16:02:24;18.40;90.40
4501;DHT22;2263;54.654;9.410;2023-07-31T16:04:52;18.40;90.40
4501;DHT22;2263;54.654;9.410;2023-07-31T16:07:19;18.40;90.40
4501;DHT22;2263;54.654;9.410;2023-07-31T16:09:48;18.40;90.40
4501;DHT22;2263;54.654;9.410;2023-07-31T16:12:16;18.40;90.40
4501;DHT22;2263;54.654;9.410;2023-07-31T16:14:43;18.40;90.40
4501;DHT22;2263;54.654;9.410;2023-07-31T16:17:11;18.40;90.30
4501;DHT22;2263;54.654;9.410;2023-07-31T16:19:39;18.40;90.30
4501;DHT22;2263;54.654;9.410;2023-07-31T16:22:06;18.40;90.40
4501;DHT22;2263;54.654;9.410;2023-07-31T16:24:34;18.40;90.30